sensor_id;sensor_type;location;lat;lon;timestamp;P1;durP1;ratioP1;P2;durP2;ratioP2
22103;SDS011;11218;48.886;9.426;2022-09-09T00:00:46;667.80;;;263.98;;
22103;SDS011;11218;48.886;9.426;2022-09-09T00:03:18;686.38;;;279.10;;
22103;SDS011;11218;48.886;9.426;2022-09-09T00:05:50;672.30;;;266.20;;
22103;SDS011;11218;48.886;9.426;2022-09-09T00:08:25;668.30;;;273.60;;
22103;SDS011;11218;48.886;9.426;2022-09-09T00:10:59;667.88;;;266.55;;
22103;SDS011;11218;48.886;9.426;2022-09-09T00:13:30;667.30;;;256.50;;
22103;SDS011;11218;48.886;9.426;2022-09-09T00:16:02;672.03;;;263.17;;
22103;SDS011;11218;48.886;9.426;2022-09-09T00:18:37;668.55;;;264.23;;
22103;SDS011;11218;48.886;9.426;2022-09-09T00:21:11;670.92;;;271.27;;
22103;SDS011;11218;48.886;9.426;2022-09-09T00:23:43;656.45;;;252.63;;
22103;SDS011;11218;48.886;9.426;2022-09-09T00:26:14;669.13;;;265.13;;
22103;SDS011;11218;48.886;9.426;2022-09-09T00:28:47;658.42;;;262.67;;
22103;SDS011;11218;48.886;9.426;2022-09-09T00:31:18;665.92;;;260.58;;
22103;SDS011;11218;48.886;9.426;2022-09-09T00:33:50;662.38;;;257.70;;
22103;SDS011;11218;48.886;9.426;2022-09-09T00:36:20;660.05;;;261.05;;
22103;SDS011;11218;48.886;9.426;2022-09-09T00:38:51;658.95;;;256.92;;
22103;SDS011;11218;48.886;9.426;2022-09-09T00:41:21;660.58;;;259.33;;
22103;SDS011;11218;48.886;9.426;2022-09-09T00:43:55;661.55;;;260.33;;
22103;SDS011;11218;48.886;9.426;2022-09-09T00:46:32;651.17;;;246.20;;
22103;SDS011;11218;48.886;9.426;2022-09-09T00:49:14;666.88;;;267.45;;
22103;SDS011;11218;48.886;9.426;2022-09-09T00:51:45;654.90;;;251.88;;
22103;SDS011;11218;48.886;9.426;2022-09-09T00:54:23;665.42;;;262.58;;
22103;SDS011;11218;48.886;9.426;2022-09-09T00:56:59;662.78;;;257.02;;
22103;SDS011;11218;48.886;9.426;2022-09-09T00:59:37;666.75;;;258.67;;
22103;SDS011;11218;48.886;9.426;2022-09-09T01:02:16;666.20;;;257.08;;
22103;SDS011;11218;48.886;9.426;2022-09-09T01:04:50;660.10;;;256.00;;
22103;SDS011;11218;48.886;9.426;2022-09-09T01:07:18;659.58;;;259.38;;
22103;SDS011;11218;48.886;9.426;2022-09-09T01:09:51;665.72;;;264.48;;
22103;SDS011;11218;48.886;9.426;2022-09-09T01:12:24;670.45;;;268.60;;
22103;SDS011;11218;48.886;9.426;2022-09-09T01:14:54;659.88;;;254.23;;
22103;SDS011;11218;48.886;9.426;2022-09-09T01:17:26;665.95;;;264.98;;
22103;SDS011;11218;48.886;9.426;2022-09-09T01:19:59;660.90;;;259.38;;
22103;SDS011;11218;48.886;9.426;2022-09-09T01:22:33;662.83;;;259.85;;
22103;SDS011;11218;48.886;9.426;2022-09-09T01:27:49;666.78;;;261.95;;
22103;SDS011;11218;48.886;9.426;2022-09-09T01:30:18;660.55;;;266.73;;
22103;SDS011;11218;48.886;9.426;2022-09-09T01:32:47;667.88;;;267.58;;
22103;SDS011;11218;48.886;9.426;2022-09-09T01:35:20;662.42;;;261.00;;
22103;SDS011;11218;48.886;9.426;2022-09-09T01:37:56;661.58;;;261.50;;
22103;SDS011;11218;48.886;9.426;2022-09-09T01:40:25;656.90;;;256.08;;
22103;SDS011;11218;48.886;9.426;2022-09-09T01:42:54;656.83;;;257.98;;
22103;SDS011;11218;48.886;9.426;2022-09-09T01:45:23;664.05;;;266.42;;
22103;SDS011;11218;48.886;9.426;2022-09-09T01:47:51;662.67;;;265.98;;
22103;SDS011;11218;48.886;9.426;2022-09-09T01:50:20;661.55;;;265.10;;
22103;SDS011;11218;48.886;9.426;2022-09-09T01:52:49;661.72;;;262.67;;
22103;SDS011;11218;48.886;9.426;2022-09-09T01:55:19;659.13;;;265.38;;
22103;SDS011;11218;48.886;9.426;2022-09-09T01:57:53;667.67;;;270.23;;
22103;SDS011;11218;48.886;9.426;2022-09-09T02:00:28;663.58;;;267.38;;
22103;SDS011;11218;48.886;9.426;2022-09-09T02:02:59;666.75;;;267.05;;
22103;SDS011;11218;48.886;9.426;2022-09-09T02:05:32;661.22;;;256.58;;
22103;SDS011;11218;48.886;9.426;2022-09-09T02:08:05;665.13;;;269.88;;
22103;SDS011;11218;48.886;9.426;2022-09-09T02:10:37;664.30;;;272.23;;
22103;SDS011;11218;48.886;9.426;2022-09-09T02:13:10;672.00;;;268.60;;
22103;SDS011;11218;48.886;9.426;2022-09-09T02:15:40;669.92;;;276.40;;
22103;SDS011;11218;48.886;9.426;2022-09-09T02:18:11;671.28;;;273.70;;
22103;SDS011;11218;48.886;9.426;2022-09-09T02:20:41;671.75;;;274.00;;
22103;SDS011;11218;48.886;9.426;2022-09-09T02:23:10;674.72;;;273.55;;
22103;SDS011;11218;48.886;9.426;2022-09-09T02:25:39;661.95;;;269.92;;
22103;SDS011;11218;48.886;9.426;2022-09-09T02:28:11;660.15;;;263.20;;
22103;SDS011;11218;48.886;9.426;2022-09-09T02:30:39;667.10;;;272.48;;
22103;SDS011;11218;48.886;9.426;2022-09-09T02:33:08;678.58;;;273.63;;
22103;SDS011;11218;48.886;9.426;2022-09-09T02:35:38;672.15;;;276.52;;
22103;SDS011;11218;48.886;9.426;2022-09-09T02:38:09;668.10;;;265.75;;
22103;SDS011;11218;48.886;9.426;2022-09-09T02:40:39;657.30;;;263.38;;
22103;SDS011;11218;48.886;9.426;2022-09-09T02:43:08;669.63;;;269.17;;
22103;SDS011;11218;48.886;9.426;2022-09-09T02:45:39;661.90;;;265.15;;
22103;SDS011;11218;48.886;9.426;2022-09-09T02:48:11;652.10;;;256.30;;
22103;SDS011;11218;48.886;9.426;2022-09-09T02:50:44;660.58;;;261.48;;
22103;SDS011;11218;48.886;9.426;2022-09-09T02:53:17;655.72;;;253.15;;
22103;SDS011;11218;48.886;9.426;2022-09-09T02:55:47;656.42;;;258.73;;
22103;SDS011;11218;48.886;9.426;2022-09-09T02:58:16;660.70;;;257.52;;
22103;SDS011;11218;48.886;9.426;2022-09-09T03:00:47;653.63;;;247.05;;
22103;SDS011;11218;48.886;9.426;2022-09-09T03:03:17;662.13;;;255.77;;
22103;SDS011;11218;48.886;9.426;2022-09-09T03:05:46;657.35;;;250.18;;
22103;SDS011;11218;48.886;9.426;2022-09-09T03:08:14;664.88;;;265.17;;
22103;SDS011;11218;48.886;9.426;2022-09-09T03:10:41;671.85;;;264.92;;
22103;SDS011;11218;48.886;9.426;2022-09-09T03:13:10;674.25;;;274.60;;
22103;SDS011;11218;48.886;9.426;2022-09-09T03:15:38;658.05;;;259.73;;
22103;SDS011;11218;48.886;9.426;2022-09-09T03:18:07;658.95;;;262.55;;
22103;SDS011;11218;48.886;9.426;2022-09-09T03:20:35;658.80;;;264.20;;
22103;SDS011;11218;48.886;9.426;2022-09-09T03:23:03;664.40;;;259.60;;
22103;SDS011;11218;48.886;9.426;2022-09-09T03:25:31;654.28;;;261.17;;
22103;SDS011;11218;48.886;9.426;2022-09-09T03:27:59;665.38;;;264.85;;
22103;SDS011;11218;48.886;9.426;2022-09-09T03:30:28;658.47;;;259.05;;
22103;SDS011;11218;48.886;9.426;2022-09-09T03:32:56;664.35;;;260.27;;
22103;SDS011;11218;48.886;9.426;2022-09-09T03:35:26;661.78;;;264.35;;
22103;SDS011;11218;48.886;9.426;2022-09-09T03:37:53;654.05;;;252.50;;
22103;SDS011;11218;48.886;9.426;2022-09-09T03:40:22;655.03;;;249.00;;
22103;SDS011;11218;48.886;9.426;2022-09-09T03:42:50;660.58;;;258.17;;
22103;SDS011;11218;48.886;9.426;2022-09-09T03:45:17;654.83;;;252.93;;
22103;SDS011;11218;48.886;9.426;2022-09-09T03:47:45;656.65;;;249.55;;
22103;SDS011;11218;48.886;9.426;2022-09-09T03:50:13;656.72;;;253.23;;
22103;SDS011;11218;48.886;9.426;2022-09-09T03:52:43;657.17;;;256.55;;
22103;SDS011;11218;48.886;9.426;2022-09-09T03:55:10;662.53;;;262.40;;
22103;SDS011;11218;48.886;9.426;2022-09-09T03:57:38;660.00;;;258.98;;
22103;SDS011;11218;48.886;9.426;2022-09-09T04:00:07;658.30;;;253.85;;
22103;SDS011;11218;48.886;9.426;2022-09-09T04:02:35;666.80;;;254.90;;
22103;SDS011;11218;48.886;9.426;2022-09-09T04:05:06;660.00;;;252.70;;
22103;SDS011;11218;48.886;9.426;2022-09-09T04:07:34;665.22;;;255.57;;
22103;SDS011;11218;48.886;9.426;2022-09-09T04:10:04;662.85;;;258.50;;
22103;SDS011;11218;48.886;9.426;2022-09-09T04:12:33;661.22;;;260.02;;
22103;SDS011;11218;48.886;9.426;2022-09-09T04:15:02;668.28;;;263.35;;
22103;SDS011;11218;48.886;9.426;2022-09-09T04:17:30;665.78;;;257.50;;
22103;SDS011;11218;48.886;9.426;2022-09-09T04:19:59;668.60;;;264.17;;
22103;SDS011;11218;48.886;9.426;2022-09-09T04:22:27;656.95;;;255.43;;
22103;SDS011;11218;48.886;9.426;2022-09-09T04:24:55;663.65;;;261.35;;
22103;SDS011;11218;48.886;9.426;2022-09-09T04:27:24;671.35;;;266.48;;
22103;SDS011;11218;48.886;9.426;2022-09-09T04:29:52;662.10;;;254.38;;
22103;SDS011;11218;48.886;9.426;2022-09-09T04:32:22;660.38;;;243.23;;
22103;SDS011;11218;48.886;9.426;2022-09-09T04:34:53;661.90;;;253.05;;
22103;SDS011;11218;48.886;9.426;2022-09-09T04:37:21;669.25;;;255.90;;
22103;SDS011;11218;48.886;9.426;2022-09-09T04:39:51;667.97;;;261.02;;
22103;SDS011;11218;48.886;9.426;2022-09-09T04:42:19;659.53;;;253.27;;
22103;SDS011;11218;48.886;9.426;2022-09-09T04:44:48;675.22;;;259.50;;
22103;SDS011;11218;48.886;9.426;2022-09-09T04:47:16;666.97;;;262.63;;
22103;SDS011;11218;48.886;9.426;2022-09-09T04:49:44;658.95;;;246.23;;
22103;SDS011;11218;48.886;9.426;2022-09-09T04:52:12;651.55;;;244.98;;
22103;SDS011;11218;48.886;9.426;2022-09-09T04:54:44;664.60;;;250.52;;
22103;SDS011;11218;48.886;9.426;2022-09-09T04:57:12;661.75;;;249.10;;
22103;SDS011;11218;48.886;9.426;2022-09-09T04:59:44;652.42;;;242.07;;
22103;SDS011;11218;48.886;9.426;2022-09-09T05:02:13;659.58;;;253.40;;
22103;SDS011;11218;48.886;9.426;2022-09-09T05:04:41;653.65;;;244.55;;
22103;SDS011;11218;48.886;9.426;2022-09-09T05:07:09;666.85;;;252.63;;
22103;SDS011;11218;48.886;9.426;2022-09-09T05:09:37;657.08;;;243.13;;
22103;SDS011;11218;48.886;9.426;2022-09-09T05:12:05;658.38;;;245.77;;
22103;SDS011;11218;48.886;9.426;2022-09-09T05:14:34;656.55;;;250.98;;
22103;SDS011;11218;48.886;9.426;2022-09-09T05:17:03;663.28;;;250.13;;
22103;SDS011;11218;48.886;9.426;2022-09-09T05:19:33;663.67;;;257.08;;
22103;SDS011;11218;48.886;9.426;2022-09-09T05:22:01;666.63;;;259.33;;
22103;SDS011;11218;48.886;9.426;2022-09-09T05:24:29;659.95;;;252.57;;
22103;SDS011;11218;48.886;9.426;2022-09-09T05:26:59;665.63;;;255.93;;
22103;SDS011;11218;48.886;9.426;2022-09-09T05:29:28;670.72;;;263.50;;
22103;SDS011;11218;48.886;9.426;2022-09-09T05:31:56;678.50;;;266.20;;
22103;SDS011;11218;48.886;9.426;2022-09-09T05:34:24;669.33;;;262.40;;
22103;SDS011;11218;48.886;9.426;2022-09-09T05:36:53;635.90;;;241.70;;
22103;SDS011;11218;48.886;9.426;2022-09-09T05:39:21;642.45;;;234.93;;
22103;SDS011;11218;48.886;9.426;2022-09-09T05:41:49;661.92;;;255.80;;
22103;SDS011;11218;48.886;9.426;2022-09-09T05:44:17;651.40;;;239.20;;
22103;SDS011;11218;48.886;9.426;2022-09-09T05:46:45;659.13;;;253.68;;
22103;SDS011;11218;48.886;9.426;2022-09-09T05:49:13;652.05;;;247.80;;
22103;SDS011;11218;48.886;9.426;2022-09-09T05:51:42;650.67;;;244.77;;
22103;SDS011;11218;48.886;9.426;2022-09-09T05:54:12;649.78;;;248.65;;
22103;SDS011;11218;48.886;9.426;2022-09-09T05:56:41;654.63;;;249.55;;
22103;SDS011;11218;48.886;9.426;2022-09-09T05:59:15;654.13;;;251.23;;
22103;SDS011;11218;48.886;9.426;2022-09-09T06:01:42;651.60;;;239.95;;
22103;SDS011;11218;48.886;9.426;2022-09-09T06:04:11;653.40;;;248.43;;
22103;SDS011;11218;48.886;9.426;2022-09-09T06:06:39;652.58;;;249.57;;
22103;SDS011;11218;48.886;9.426;2022-09-09T06:09:08;648.78;;;246.25;;
22103;SDS011;11218;48.886;9.426;2022-09-09T06:11:39;655.55;;;245.23;;
22103;SDS011;11218;48.886;9.426;2022-09-09T06:14:07;652.25;;;250.85;;
22103;SDS011;11218;48.886;9.426;2022-09-09T06:16:36;655.63;;;252.95;;
22103;SDS011;11218;48.886;9.426;2022-09-09T06:19:04;652.28;;;243.45;;
22103;SDS011;11218;48.886;9.426;2022-09-09T06:21:33;658.30;;;253.40;;
22103;SDS011;11218;48.886;9.426;2022-09-09T06:24:03;657.65;;;252.35;;
22103;SDS011;11218;48.886;9.426;2022-09-09T06:26:46;653.92;;;250.63;;
22103;SDS011;11218;48.886;9.426;2022-09-09T06:29:14;655.85;;;249.48;;
22103;SDS011;11218;48.886;9.426;2022-09-09T06:31:42;654.63;;;254.60;;
22103;SDS011;11218;48.886;9.426;2022-09-09T06:34:11;647.97;;;244.52;;
22103;SDS011;11218;48.886;9.426;2022-09-09T06:36:39;662.88;;;259.60;;
22103;SDS011;11218;48.886;9.426;2022-09-09T06:39:07;649.78;;;253.95;;
22103;SDS011;11218;48.886;9.426;2022-09-09T06:41:40;663.10;;;262.35;;
22103;SDS011;11218;48.886;9.426;2022-09-09T06:44:10;653.85;;;249.98;;
22103;SDS011;11218;48.886;9.426;2022-09-09T06:46:39;663.75;;;257.27;;
22103;SDS011;11218;48.886;9.426;2022-09-09T06:49:07;660.13;;;258.75;;
22103;SDS011;11218;48.886;9.426;2022-09-09T06:51:35;664.42;;;257.80;;
22103;SDS011;11218;48.886;9.426;2022-09-09T06:54:09;658.92;;;262.30;;
22103;SDS011;11218;48.886;9.426;2022-09-09T06:56:38;662.85;;;259.55;;
22103;SDS011;11218;48.886;9.426;2022-09-09T06:59:09;663.53;;;260.45;;
22103;SDS011;11218;48.886;9.426;2022-09-09T07:01:39;665.63;;;264.45;;
22103;SDS011;11218;48.886;9.426;2022-09-09T07:04:08;655.30;;;256.67;;
22103;SDS011;11218;48.886;9.426;2022-09-09T07:06:38;661.22;;;260.92;;
22103;SDS011;11218;48.886;9.426;2022-09-09T07:09:07;659.92;;;258.15;;
22103;SDS011;11218;48.886;9.426;2022-09-09T07:11:38;662.55;;;265.02;;
22103;SDS011;11218;48.886;9.426;2022-09-09T07:14:08;666.30;;;257.90;;
22103;SDS011;11218;48.886;9.426;2022-09-09T07:16:39;662.15;;;264.40;;
22103;SDS011;11218;48.886;9.426;2022-09-09T07:19:08;662.83;;;256.52;;
22103;SDS011;11218;48.886;9.426;2022-09-09T07:21:36;667.45;;;265.45;;
22103;SDS011;11218;48.886;9.426;2022-09-09T07:24:06;671.70;;;272.27;;
22103;SDS011;11218;48.886;9.426;2022-09-09T07:26:37;663.90;;;270.58;;
22103;SDS011;11218;48.886;9.426;2022-09-09T07:29:06;664.15;;;270.48;;
22103;SDS011;11218;48.886;9.426;2022-09-09T07:31:35;671.58;;;275.65;;
22103;SDS011;11218;48.886;9.426;2022-09-09T07:34:05;666.22;;;266.85;;
22103;SDS011;11218;48.886;9.426;2022-09-09T07:36:35;674.67;;;275.35;;
22103;SDS011;11218;48.886;9.426;2022-09-09T07:39:05;674.25;;;272.02;;
22103;SDS011;11218;48.886;9.426;2022-09-09T07:41:34;662.63;;;274.85;;
22103;SDS011;11218;48.886;9.426;2022-09-09T07:44:04;668.83;;;266.55;;
22103;SDS011;11218;48.886;9.426;2022-09-09T07:46:33;670.38;;;274.30;;
22103;SDS011;11218;48.886;9.426;2022-09-09T07:49:02;661.17;;;269.73;;
22103;SDS011;11218;48.886;9.426;2022-09-09T07:51:33;652.90;;;264.75;;
22103;SDS011;11218;48.886;9.426;2022-09-09T07:54:02;671.00;;;276.30;;
22103;SDS011;11218;48.886;9.426;2022-09-09T07:56:31;660.60;;;269.92;;
22103;SDS011;11218;48.886;9.426;2022-09-09T07:59:00;669.78;;;275.02;;
22103;SDS011;11218;48.886;9.426;2022-09-09T08:01:31;667.00;;;273.30;;
22103;SDS011;11218;48.886;9.426;2022-09-09T08:04:02;667.80;;;278.23;;
22103;SDS011;11218;48.886;9.426;2022-09-09T08:06:35;671.45;;;278.15;;
22103;SDS011;11218;48.886;9.426;2022-09-09T08:09:05;671.75;;;279.55;;
22103;SDS011;11218;48.886;9.426;2022-09-09T08:11:34;675.53;;;288.38;;
22103;SDS011;11218;48.886;9.426;2022-09-09T08:14:04;660.92;;;275.85;;
22103;SDS011;11218;48.886;9.426;2022-09-09T08:16:34;674.33;;;291.52;;
22103;SDS011;11218;48.886;9.426;2022-09-09T08:19:03;674.75;;;293.23;;
22103;SDS011;11218;48.886;9.426;2022-09-09T08:21:35;665.40;;;285.35;;
22103;SDS011;11218;48.886;9.426;2022-09-09T08:24:04;674.25;;;292.13;;
22103;SDS011;11218;48.886;9.426;2022-09-09T08:26:34;674.20;;;292.65;;
22103;SDS011;11218;48.886;9.426;2022-09-09T08:29:04;670.45;;;293.00;;
22103;SDS011;11218;48.886;9.426;2022-09-09T08:31:33;675.55;;;294.90;;
22103;SDS011;11218;48.886;9.426;2022-09-09T08:34:03;669.42;;;293.50;;
22103;SDS011;11218;48.886;9.426;2022-09-09T08:36:34;679.00;;;305.08;;
22103;SDS011;11218;48.886;9.426;2022-09-09T08:39:05;673.00;;;300.25;;
22103;SDS011;11218;48.886;9.426;2022-09-09T08:41:38;683.83;;;315.13;;
22103;SDS011;11218;48.886;9.426;2022-09-09T08:44:12;677.20;;;311.48;;
22103;SDS011;11218;48.886;9.426;2022-09-09T08:46:46;671.25;;;303.10;;
22103;SDS011;11218;48.886;9.426;2022-09-09T08:49:23;676.80;;;313.83;;
22103;SDS011;11218;48.886;9.426;2022-09-09T08:52:09;679.35;;;318.77;;
22103;SDS011;11218;48.886;9.426;2022-09-09T08:54:45;667.95;;;300.50;;
22103;SDS011;11218;48.886;9.426;2022-09-09T08:57:18;672.60;;;315.73;;
22103;SDS011;11218;48.886;9.426;2022-09-09T08:59:49;673.45;;;321.70;;
22103;SDS011;11218;48.886;9.426;2022-09-09T09:02:18;666.08;;;312.73;;
22103;SDS011;11218;48.886;9.426;2022-09-09T09:04:56;677.60;;;320.20;;
22103;SDS011;11218;48.886;9.426;2022-09-09T09:07:32;669.03;;;319.23;;
22103;SDS011;11218;48.886;9.426;2022-09-09T09:10:09;673.13;;;316.33;;
22103;SDS011;11218;48.886;9.426;2022-09-09T09:13:02;672.53;;;322.90;;
22103;SDS011;11218;48.886;9.426;2022-09-09T09:15:32;676.22;;;328.15;;
22103;SDS011;11218;48.886;9.426;2022-09-09T09:18:03;678.92;;;328.58;;
22103;SDS011;11218;48.886;9.426;2022-09-09T09:20:33;664.50;;;311.15;;
22103;SDS011;11218;48.886;9.426;2022-09-09T09:23:09;671.58;;;323.55;;
22103;SDS011;11218;48.886;9.426;2022-09-09T09:25:42;671.53;;;319.38;;
22103;SDS011;11218;48.886;9.426;2022-09-09T09:28:12;677.80;;;336.02;;
22103;SDS011;11218;48.886;9.426;2022-09-09T09:30:44;675.13;;;328.27;;
22103;SDS011;11218;48.886;9.426;2022-09-09T09:33:17;679.00;;;334.77;;
22103;SDS011;11218;48.886;9.426;2022-09-09T09:35:48;674.70;;;324.40;;
22103;SDS011;11218;48.886;9.426;2022-09-09T09:38:18;672.63;;;323.08;;
22103;SDS011;11218;48.886;9.426;2022-09-09T09:41:08;679.67;;;330.55;;
22103;SDS011;11218;48.886;9.426;2022-09-09T09:43:37;677.30;;;326.30;;
22103;SDS011;11218;48.886;9.426;2022-09-09T09:46:18;673.13;;;318.98;;
22103;SDS011;11218;48.886;9.426;2022-09-09T09:48:56;673.15;;;323.52;;
22103;SDS011;11218;48.886;9.426;2022-09-09T09:51:24;671.50;;;317.45;;
22103;SDS011;11218;48.886;9.426;2022-09-09T09:53:54;675.75;;;318.58;;
22103;SDS011;11218;48.886;9.426;2022-09-09T09:56:32;679.40;;;321.40;;
22103;SDS011;11218;48.886;9.426;2022-09-09T09:59:01;677.55;;;316.65;;
22103;SDS011;11218;48.886;9.426;2022-09-09T10:01:43;671.55;;;312.42;;
22103;SDS011;11218;48.886;9.426;2022-09-09T10:04:14;678.25;;;323.55;;
22103;SDS011;11218;48.886;9.426;2022-09-09T10:06:45;671.72;;;312.70;;
22103;SDS011;11218;48.886;9.426;2022-09-09T10:09:23;674.95;;;312.83;;
22103;SDS011;11218;48.886;9.426;2022-09-09T10:11:54;671.92;;;312.48;;
22103;SDS011;11218;48.886;9.426;2022-09-09T10:14:27;673.20;;;319.90;;
22103;SDS011;11218;48.886;9.426;2022-09-09T10:17:00;678.83;;;326.98;;
22103;SDS011;11218;48.886;9.426;2022-09-09T10:19:34;683.42;;;333.83;;
22103;SDS011;11218;48.886;9.426;2022-09-09T10:22:05;665.00;;;310.73;;
22103;SDS011;11218;48.886;9.426;2022-09-09T10:24:54;656.40;;;309.50;;
22103;SDS011;11218;48.886;9.426;2022-09-09T10:27:31;666.30;;;311.00;;
22103;SDS011;11218;48.886;9.426;2022-09-09T10:30:09;666.83;;;306.80;;
22103;SDS011;11218;48.886;9.426;2022-09-09T10:32:44;674.53;;;328.90;;
22103;SDS011;11218;48.886;9.426;2022-09-09T10:35:17;678.63;;;330.00;;
22103;SDS011;11218;48.886;9.426;2022-09-09T10:41:09;662.08;;;310.77;;
22103;SDS011;11218;48.886;9.426;2022-09-09T10:43:46;675.50;;;325.95;;
22103;SDS011;11218;48.886;9.426;2022-09-09T10:46:27;678.20;;;334.92;;
22103;SDS011;11218;48.886;9.426;2022-09-09T10:49:05;678.70;;;333.77;;
22103;SDS011;11218;48.886;9.426;2022-09-09T10:51:50;672.75;;;330.83;;
22103;SDS011;11218;48.886;9.426;2022-09-09T10:54:24;673.85;;;326.55;;
22103;SDS011;11218;48.886;9.426;2022-09-09T10:57:03;679.83;;;338.60;;
22103;SDS011;11218;48.886;9.426;2022-09-09T10:59:35;674.30;;;336.38;;
22103;SDS011;11218;48.886;9.426;2022-09-09T11:02:06;673.58;;;332.35;;
22103;SDS011;11218;48.886;9.426;2022-09-09T11:04:42;675.78;;;342.55;;
22103;SDS011;11218;48.886;9.426;2022-09-09T11:07:16;681.05;;;341.80;;
22103;SDS011;11218;48.886;9.426;2022-09-09T11:09:50;676.42;;;343.13;;
22103;SDS011;11218;48.886;9.426;2022-09-09T11:12:23;670.78;;;328.58;;
22103;SDS011;11218;48.886;9.426;2022-09-09T11:14:53;679.83;;;335.52;;
22103;SDS011;11218;48.886;9.426;2022-09-09T11:17:24;674.92;;;338.42;;
22103;SDS011;11218;48.886;9.426;2022-09-09T11:19:54;686.65;;;346.38;;
22103;SDS011;11218;48.886;9.426;2022-09-09T11:22:24;675.40;;;337.50;;
22103;SDS011;11218;48.886;9.426;2022-09-09T11:24:57;674.42;;;340.90;;
22103;SDS011;11218;48.886;9.426;2022-09-09T11:27:29;675.67;;;337.48;;
22103;SDS011;11218;48.886;9.426;2022-09-09T11:30:05;674.80;;;335.95;;
22103;SDS011;11218;48.886;9.426;2022-09-09T11:33:17;684.25;;;338.42;;
22103;SDS011;11218;48.886;9.426;2022-09-09T11:35:58;673.58;;;331.17;;
22103;SDS011;11218;48.886;9.426;2022-09-09T11:38:35;676.30;;;334.70;;
22103;SDS011;11218;48.886;9.426;2022-09-09T11:41:08;676.60;;;335.27;;
22103;SDS011;11218;48.886;9.426;2022-09-09T11:43:40;678.03;;;339.48;;
22103;SDS011;11218;48.886;9.426;2022-09-09T11:46:09;680.05;;;329.40;;
22103;SDS011;11218;48.886;9.426;2022-09-09T11:48:38;672.90;;;316.95;;
22103;SDS011;11218;48.886;9.426;2022-09-09T11:51:10;688.25;;;324.60;;
22103;SDS011;11218;48.886;9.426;2022-09-09T11:53:49;679.70;;;307.77;;
22103;SDS011;11218;48.886;9.426;2022-09-09T11:56:25;671.92;;;300.63;;
22103;SDS011;11218;48.886;9.426;2022-09-09T11:58:57;683.90;;;308.95;;
22103;SDS011;11218;48.886;9.426;2022-09-09T12:01:37;675.53;;;297.63;;
22103;SDS011;11218;48.886;9.426;2022-09-09T12:04:09;674.95;;;292.58;;
22103;SDS011;11218;48.886;9.426;2022-09-09T12:06:46;676.70;;;293.98;;
22103;SDS011;11218;48.886;9.426;2022-09-09T12:09:23;673.53;;;282.58;;
22103;SDS011;11218;48.886;9.426;2022-09-09T12:12:04;668.08;;;282.45;;
22103;SDS011;11218;48.886;9.426;2022-09-09T12:14:37;666.55;;;279.30;;
22103;SDS011;11218;48.886;9.426;2022-09-09T12:17:17;666.80;;;277.40;;
22103;SDS011;11218;48.886;9.426;2022-09-09T12:19:47;671.47;;;280.83;;
22103;SDS011;11218;48.886;9.426;2022-09-09T12:22:18;661.95;;;276.58;;
22103;SDS011;11218;48.886;9.426;2022-09-09T12:24:52;664.28;;;279.85;;
22103;SDS011;11218;48.886;9.426;2022-09-09T12:27:24;666.95;;;286.30;;
22103;SDS011;11218;48.886;9.426;2022-09-09T12:29:58;662.53;;;276.80;;
22103;SDS011;11218;48.886;9.426;2022-09-09T12:32:29;672.55;;;298.73;;
22103;SDS011;11218;48.886;9.426;2022-09-09T12:34:58;679.78;;;294.75;;
22103;SDS011;11218;48.886;9.426;2022-09-09T12:37:29;667.03;;;297.55;;
22103;SDS011;11218;48.886;9.426;2022-09-09T12:40:00;666.92;;;294.50;;
22103;SDS011;11218;48.886;9.426;2022-09-09T12:42:30;665.83;;;296.80;;
22103;SDS011;11218;48.886;9.426;2022-09-09T12:45:16;678.67;;;310.30;;
22103;SDS011;11218;48.886;9.426;2022-09-09T12:47:45;668.78;;;301.80;;
22103;SDS011;11218;48.886;9.426;2022-09-09T12:50:16;663.25;;;304.60;;
22103;SDS011;11218;48.886;9.426;2022-09-09T12:52:46;663.38;;;298.05;;
22103;SDS011;11218;48.886;9.426;2022-09-09T12:55:16;663.85;;;297.95;;
22103;SDS011;11218;48.886;9.426;2022-09-09T12:57:46;668.65;;;302.98;;
22103;SDS011;11218;48.886;9.426;2022-09-09T13:00:19;666.13;;;304.15;;
22103;SDS011;11218;48.886;9.426;2022-09-09T13:02:50;670.63;;;311.05;;
22103;SDS011;11218;48.886;9.426;2022-09-09T13:05:20;666.65;;;296.65;;
22103;SDS011;11218;48.886;9.426;2022-09-09T13:07:49;668.13;;;299.02;;
22103;SDS011;11218;48.886;9.426;2022-09-09T13:10:21;660.10;;;294.20;;
22103;SDS011;11218;48.886;9.426;2022-09-09T13:13:12;679.40;;;309.75;;
22103;SDS011;11218;48.886;9.426;2022-09-09T13:15:47;671.58;;;311.17;;
22103;SDS011;11218;48.886;9.426;2022-09-09T13:18:16;670.35;;;309.10;;
22103;SDS011;11218;48.886;9.426;2022-09-09T13:20:48;662.88;;;306.10;;
22103;SDS011;11218;48.886;9.426;2022-09-09T13:23:18;670.80;;;304.98;;
22103;SDS011;11218;48.886;9.426;2022-09-09T13:25:53;668.30;;;303.75;;
22103;SDS011;11218;48.886;9.426;2022-09-09T13:28:23;667.45;;;311.58;;
22103;SDS011;11218;48.886;9.426;2022-09-09T13:31:00;668.30;;;305.10;;
22103;SDS011;11218;48.886;9.426;2022-09-09T13:33:30;673.10;;;309.80;;
22103;SDS011;11218;48.886;9.426;2022-09-09T13:36:02;661.97;;;297.58;;
22103;SDS011;11218;48.886;9.426;2022-09-09T13:38:32;664.85;;;308.50;;
22103;SDS011;11218;48.886;9.426;2022-09-09T13:41:03;666.20;;;309.85;;
22103;SDS011;11218;48.886;9.426;2022-09-09T13:43:34;670.10;;;303.02;;
22103;SDS011;11218;48.886;9.426;2022-09-09T13:46:20;667.88;;;308.45;;
22103;SDS011;11218;48.886;9.426;2022-09-09T13:48:55;665.35;;;304.20;;
22103;SDS011;11218;48.886;9.426;2022-09-09T13:51:34;673.65;;;315.02;;
22103;SDS011;11218;48.886;9.426;2022-09-09T13:54:04;682.50;;;315.58;;
22103;SDS011;11218;48.886;9.426;2022-09-09T13:56:33;670.92;;;310.80;;
22103;SDS011;11218;48.886;9.426;2022-09-09T13:59:02;668.08;;;307.27;;
22103;SDS011;11218;48.886;9.426;2022-09-09T14:01:33;665.53;;;310.40;;
22103;SDS011;11218;48.886;9.426;2022-09-09T14:04:01;655.28;;;297.95;;
22103;SDS011;11218;48.886;9.426;2022-09-09T14:06:29;664.80;;;306.65;;
22103;SDS011;11218;48.886;9.426;2022-09-09T14:08:58;659.17;;;303.92;;
22103;SDS011;11218;48.886;9.426;2022-09-09T14:11:26;662.30;;;301.65;;
22103;SDS011;11218;48.886;9.426;2022-09-09T14:13:54;669.88;;;310.52;;
22103;SDS011;11218;48.886;9.426;2022-09-09T14:16:22;659.65;;;303.33;;
22103;SDS011;11218;48.886;9.426;2022-09-09T14:18:53;651.92;;;296.55;;
22103;SDS011;11218;48.886;9.426;2022-09-09T14:21:22;660.55;;;298.80;;
22103;SDS011;11218;48.886;9.426;2022-09-09T14:23:50;670.78;;;313.83;;
22103;SDS011;11218;48.886;9.426;2022-09-09T14:26:18;667.53;;;308.63;;